Time;durP1;ratioP1;P1;durP2;ratioP2;P2;SDS_P1;SDS_P2;PMS_P1;PMS_P2;Temp;Humidity;BMP_temperature;BMP_pressure;BME280_temperature;BME280_humidity;BME280_pressure;Samples;Min_cycle;Max_cycle;Signal;HPM_P1;HPM_P2
2021/11/19 00:01:56;;;;;;;26.95;16.67;;;12.00;99.90;;;;;;5144924;27;20046;-57
2021/11/19 00:04:23;;;;;;;25.75;15.95;;;12.00;99.90;;;;;;5130442;27;20042;-57
2021/11/19 00:06:50;;;;;;;26.25;16.67;;;12.00;99.90;;;;;;5150231;27;20045;-57
2021/11/19 00:09:16;;;;;;;26.58;15.63;;;12.00;99.90;;;;;;5149940;27;20169;-57
2021/11/19 00:11:45;;;;;;;26.33;16.30;;;12.00;99.90;;;;;;5144298;27;20091;-57
2021/11/19 00:14:12;;;;;;;29.05;15.90;;;12.10;99.90;;;;;;5127000;27;20049;-57
2021/11/19 00:16:41;;;;;;;27.42;15.23;;;12.10;99.90;;;;;;5130881;27;20035;-57
2021/11/19 00:19:08;;;;;;;24.05;15.57;;;12.10;99.90;;;;;;5148839;27;20039;-57
2021/11/19 00:21:36;;;;;;;29.00;15.75;;;12.10;99.90;;;;;;5148982;27;20461;-57
2021/11/19 00:24:03;;;;;;;27.23;15.23;;;12.10;99.90;;;;;;5150449;27;20126;-57
2021/11/19 00:26:30;;;;;;;26.30;15.90;;;12.10;99.90;;;;;;5146296;27;20043;-57
2021/11/19 00:28:57;;;;;;;22.55;14.52;;;12.20;99.90;;;;;;5131179;27;20054;-57
2021/11/19 00:31:24;;;;;;;25.05;15.40;;;12.20;99.90;;;;;;5131127;27;20054;-57
2021/11/19 00:33:52;;;;;;;24.90;15.13;;;12.20;99.90;;;;;;5111051;27;20424;-57
2021/11/19 00:36:21;;;;;;;23.75;15.73;;;12.10;99.90;;;;;;5150254;27;20042;-57
2021/11/19 00:38:49;;;;;;;21.17;15.25;;;12.20;99.90;;;;;;5150090;27;20084;-57
2021/11/19 00:41:15;;;;;;;21.23;15.20;;;12.20;99.90;;;;;;5121504;27;20039;-57
2021/11/19 00:43:42;;;;;;;20.77;15.27;;;12.20;99.90;;;;;;5130860;27;20043;-57
2021/11/19 00:46:10;;;;;;;29.27;14.93;;;12.20;99.90;;;;;;5124761;27;20039;-57
2021/11/19 00:48:38;;;;;;;23.45;14.88;;;12.20;99.90;;;;;;5130772;27;20052;-57
2021/11/19 00:51:06;;;;;;;23.55;14.85;;;12.10;99.90;;;;;;5131436;27;20401;-57
2021/11/19 00:53:33;;;;;;;24.75;15.95;;;12.20;99.90;;;;;;5131306;27;20047;-57
2021/11/19 00:56:00;;;;;;;23.13;15.43;;;12.10;99.90;;;;;;5130649;27;20047;-57
2021/11/19 00:58:27;;;;;;;24.13;14.88;;;12.10;99.90;;;;;;5130510;27;20392;-57
2021/11/19 01:01:00;;;;;;;26.17;15.68;;;12.10;99.90;;;;;;5129644;27;20046;-57
2021/11/19 01:03:27;;;;;;;24.48;14.00;;;12.10;99.90;;;;;;5124356;27;20088;-57
2021/11/19 01:05:54;;;;;;;22.75;14.02;;;12.10;99.90;;;;;;5143410;27;20528;-57
2021/11/19 01:08:21;;;;;;;21.05;14.63;;;12.10;99.90;;;;;;5109793;28;20043;-57
2021/11/19 01:10:49;;;;;;;23.15;14.65;;;12.10;99.90;;;;;;5121977;27;20053;-57
2021/11/19 01:13:16;;;;;;;21.88;14.10;;;12.10;99.90;;;;;;5111587;27;20093;-57
2021/11/19 01:15:47;;;;;;;23.70;14.50;;;12.10;99.90;;;;;;5126833;27;20640;-57
2021/11/19 01:18:28;;;;;;;22.40;14.35;;;12.10;99.90;;;;;;5144571;27;20078;-57
2021/11/19 01:21:33;;;;;;;23.65;14.48;;;12.10;99.90;;;;;;5113715;27;20512;-57
2021/11/19 01:24:00;;;;;;;23.52;14.48;;;12.10;99.90;;;;;;5113346;27;20057;-57
2021/11/19 01:26:36;;;;;;;19.77;13.88;;;12.10;99.90;;;;;;5129547;27;20503;-56
2021/11/19 01:29:10;;;;;;;23.92;14.00;;;12.10;99.90;;;;;;5122704;28;20078;-57
2021/11/19 01:31:40;;;;;;;18.83;12.57;;;12.10;99.90;;;;;;5104515;27;20064;-57
2021/11/19 01:34:14;;;;;;;25.25;12.80;;;12.10;99.90;;;;;;5128844;27;20074;-57
2021/11/19 01:36:58;;;;;;;25.27;12.40;;;12.10;99.90;;;;;;5129253;27;20035;-60
2021/11/19 01:39:39;;;;;;;23.05;12.70;;;12.10;99.90;;;;;;5128515;27;20567;-57
2021/11/19 01:42:28;;;;;;;19.75;11.65;;;12.00;99.90;;;;;;5127796;27;20044;-58
2021/11/19 01:44:58;;;;;;;24.47;12.63;;;12.00;99.90;;;;;;5127439;27;20126;-57
2021/11/19 01:47:25;;;;;;;26.17;13.68;;;12.00;99.90;;;;;;5120821;27;20095;-57
2021/11/19 01:49:52;;;;;;;17.48;12.10;;;12.00;99.90;;;;;;5108673;28;20074;-57
2021/11/19 01:52:36;;;;;;;22.25;12.27;;;12.00;99.90;;;;;;5114475;27;20046;-49
2021/11/19 01:55:15;;;;;;;23.98;12.93;;;12.00;99.90;;;;;;5128686;27;20047;-55
2021/11/19 01:57:55;;;;;;;25.73;14.07;;;11.90;99.90;;;;;;5143341;27;20425;-51
2021/11/19 02:00:22;;;;;;;24.60;11.80;;;11.90;99.90;;;;;;5132379;27;20560;-57
2021/11/19 02:02:51;;;;;;;20.65;12.05;;;11.90;99.90;;;;;;5124911;27;20075;-57
2021/11/19 02:05:36;;;;;;;21.08;13.02;;;11.90;99.90;;;;;;5112264;27;20058;-57
2021/11/19 02:08:14;;;;;;;22.55;12.90;;;11.90;99.90;;;;;;5131638;27;20122;-57
2021/11/19 02:10:54;;;;;;;28.13;13.50;;;11.90;99.90;;;;;;5136558;27;20074;-57
2021/11/19 02:13:40;;;;;;;25.02;13.25;;;11.90;99.90;;;;;;5088558;27;20137;-57
2021/11/19 02:16:19;;;;;;;24.98;12.82;;;11.80;99.90;;;;;;5151210;27;20081;-57
2021/11/19 02:18:49;;;;;;;24.17;13.10;;;11.80;99.90;;;;;;5112751;27;20050;-57
2021/11/19 02:21:49;;;;;;;21.92;13.23;;;11.70;99.90;;;;;;5107779;27;20043;-57
2021/11/19 02:24:21;;;;;;;20.23;11.63;;;11.70;99.90;;;;;;5050653;28;20567;-57
2021/11/19 02:27:04;;;;;;;25.40;12.95;;;11.70;99.90;;;;;;5034487;28;20542;-57
2021/11/19 02:29:37;;;;;;;23.27;12.10;;;11.80;99.90;;;;;;5063924;28;20052;-57
2021/11/19 02:32:08;;;;;;;26.10;12.98;;;11.70;99.90;;;;;;5067364;28;20484;-57
2021/11/19 02:34:44;;;;;;;22.25;12.43;;;11.80;99.90;;;;;;5068023;28;20139;-57
2021/11/19 02:37:26;;;;;;;22.17;12.82;;;11.70;99.90;;;;;;5032828;28;20051;-57
2021/11/19 02:40:00;;;;;;;23.30;13.18;;;11.80;99.90;;;;;;5067124;28;20056;-57
2021/11/19 02:42:32;;;;;;;31.10;13.73;;;11.80;99.90;;;;;;5033269;28;20056;-57
2021/11/19 02:45:03;;;;;;;23.73;13.68;;;11.70;99.90;;;;;;5051576;28;20044;-57
2021/11/19 02:47:31;;;;;;;23.50;12.77;;;11.80;99.90;;;;;;5050691;28;20701;-57
2021/11/19 02:49:58;;;;;;;27.30;12.68;;;11.70;99.90;;;;;;5048447;28;20052;-57
2021/11/19 02:52:31;;;;;;;25.65;13.55;;;11.80;99.90;;;;;;5068190;28;20483;-56
2021/11/19 02:54:59;;;;;;;19.08;13.48;;;11.70;99.90;;;;;;5068341;28;20048;-56
2021/11/19 02:57:26;;;;;;;24.73;12.93;;;11.70;99.90;;;;;;5053851;28;20079;-57
2021/11/19 02:59:53;;;;;;;19.83;12.48;;;11.80;99.90;;;;;;5068298;27;20044;-56
2021/11/19 03:02:25;;;;;;;24.25;12.82;;;11.70;99.90;;;;;;5098938;28;20052;-52
2021/11/19 03:04:59;;;;;;;27.85;14.40;;;11.70;99.90;;;;;;5117130;27;20036;-51
2021/11/19 03:07:27;;;;;;;25.40;14.77;;;11.70;99.90;;;;;;5127634;27;20043;-52
2021/11/19 03:10:02;;;;;;;27.23;14.75;;;11.70;99.90;;;;;;5126703;27;20130;-50
2021/11/19 03:12:31;;;;;;;27.50;15.10;;;11.80;99.90;;;;;;5107776;28;20520;-49
2021/11/19 03:15:01;;;;;;;22.92;15.45;;;11.80;99.90;;;;;;5092395;27;20056;-49
2021/11/19 03:17:28;;;;;;;24.27;15.73;;;11.80;99.90;;;;;;5128728;27;20361;-57
2021/11/19 03:19:57;;;;;;;24.98;15.30;;;11.80;99.90;;;;;;5094751;27;20872;-57
2021/11/19 03:22:26;;;;;;;27.65;15.40;;;11.70;99.90;;;;;;5127954;27;20112;-56
2021/11/19 03:24:52;;;;;;;27.35;15.52;;;11.80;99.90;;;;;;5128523;27;20043;-56
2021/11/19 03:27:19;;;;;;;22.70;14.30;;;11.80;99.90;;;;;;5126357;27;20046;-57
2021/11/19 03:29:56;;;;;;;24.90;13.77;;;11.90;99.90;;;;;;5123450;27;20039;-57
2021/11/19 03:32:27;;;;;;;27.80;15.02;;;11.90;99.90;;;;;;5125707;27;20043;-56
2021/11/19 03:34:53;;;;;;;28.67;14.20;;;11.80;99.90;;;;;;5128570;27;20057;-50
2021/11/19 03:37:20;;;;;;;22.95;14.07;;;11.80;99.90;;;;;;5110506;27;20315;-50
2021/11/19 03:39:48;;;;;;;20.23;12.93;;;11.90;99.90;;;;;;5123933;27;20092;-49
2021/11/19 03:42:17;;;;;;;23.60;12.85;;;11.90;99.90;;;;;;5103473;27;20050;-57
2021/11/19 03:44:59;;;;;;;18.85;12.98;;;11.90;99.90;;;;;;5103617;28;20051;-49
2021/11/19 03:47:37;;;;;;;23.77;12.90;;;11.90;99.90;;;;;;5113146;27;20066;-51
2021/11/19 03:50:09;;;;;;;20.98;12.73;;;11.90;99.90;;;;;;5120707;27;20092;-48
2021/11/19 03:52:38;;;;;;;20.50;12.82;;;11.90;99.90;;;;;;5125598;27;20046;-49
2021/11/19 03:55:12;;;;;;;19.27;12.38;;;11.90;99.90;;;;;;5110471;27;20051;-49
2021/11/19 03:57:38;;;;;;;20.15;11.98;;;11.90;99.90;;;;;;5110611;27;20153;-50
2021/11/19 04:00:12;;;;;;;25.33;13.55;;;12.00;99.90;;;;;;5124989;27;20051;-47
2021/11/19 04:02:41;;;;;;;20.42;11.65;;;12.00;99.90;;;;;;5126996;27;20039;-51
2021/11/19 04:05:10;;;;;;;18.55;11.32;;;12.00;99.90;;;;;;5128179;27;20043;-48
2021/11/19 04:07:37;;;;;;;19.15;11.32;;;12.00;99.90;;;;;;5126687;27;20049;-49
2021/11/19 04:10:05;;;;;;;20.15;11.40;;;12.00;99.90;;;;;;5108114;27;20394;-51
2021/11/19 04:12:31;;;;;;;20.35;12.45;;;12.00;99.90;;;;;;5110511;27;20478;-50
2021/11/19 04:14:58;;;;;;;24.52;13.05;;;12.00;99.90;;;;;;5126358;27;20039;-51
2021/11/19 04:17:25;;;;;;;20.40;11.73;;;12.10;99.90;;;;;;5126779;27;20047;-49
2021/11/19 04:19:51;;;;;;;20.40;11.57;;;12.00;99.90;;;;;;5126629;27;20047;-48
2021/11/19 04:22:19;;;;;;;20.45;11.63;;;12.10;99.90;;;;;;5108942;27;20047;-49
2021/11/19 04:24:52;;;;;;;22.58;12.82;;;12.10;99.90;;;;;;5107536;27;20040;-49
2021/11/19 04:27:20;;;;;;;20.73;12.23;;;12.10;99.90;;;;;;5090198;27;20086;-51
2021/11/19 04:30:11;;;;;;;24.83;10.80;;;12.10;99.90;;;;;;5117839;27;20114;-48
2021/11/19 04:32:38;;;;;;;22.65;11.63;;;12.00;99.90;;;;;;5092775;27;20051;-47
2021/11/19 04:35:05;;;;;;;18.48;12.05;;;12.10;99.90;;;;;;5123312;27;20122;-48
2021/11/19 04:37:32;;;;;;;21.33;11.90;;;12.10;99.90;;;;;;5109710;27;20309;-49
2021/11/19 04:40:06;;;;;;;18.63;11.35;;;12.10;99.90;;;;;;5139062;27;20050;-51
2021/11/19 04:42:34;;;;;;;19.52;11.82;;;12.10;99.90;;;;;;5130195;27;20074;-49
2021/11/19 04:45:01;;;;;;;23.92;12.20;;;12.10;99.90;;;;;;5144916;27;20043;-57
2021/11/19 04:47:29;;;;;;;18.88;11.95;;;12.20;99.90;;;;;;5127236;27;20485;-57
2021/11/19 04:49:55;;;;;;;20.45;11.25;;;12.20;99.90;;;;;;5149754;27;20065;-57
2021/11/19 04:52:21;;;;;;;20.15;11.43;;;12.10;99.90;;;;;;5129629;27;20042;-57
2021/11/19 04:54:48;;;;;;;23.13;12.55;;;12.10;99.90;;;;;;5111592;27;20065;-57
2021/11/19 04:57:15;;;;;;;20.58;12.15;;;12.20;99.90;;;;;;5128065;27;20049;-57
2021/11/19 04:59:41;;;;;;;16.70;11.70;;;12.20;99.90;;;;;;5147606;27;20393;-48
2021/11/19 05:02:11;;;;;;;23.65;12.43;;;12.20;99.90;;;;;;5149855;27;20030;-52
2021/11/19 05:04:44;;;;;;;25.83;13.13;;;12.10;99.90;;;;;;5124159;27;20047;-49
2021/11/19 05:07:10;;;;;;;23.40;12.57;;;12.10;99.90;;;;;;5129886;27;20452;-49
2021/11/19 05:09:36;;;;;;;18.25;11.50;;;12.10;99.90;;;;;;5146317;27;20045;-50
2021/11/19 05:12:10;;;;;;;19.92;12.23;;;12.20;99.90;;;;;;5109730;27;20103;-52
2021/11/19 05:14:40;;;;;;;20.27;11.80;;;12.20;99.90;;;;;;5111510;27;20049;-51
2021/11/19 05:17:08;;;;;;;23.30;12.27;;;12.10;99.90;;;;;;5111381;27;20066;-49
2021/11/19 05:19:35;;;;;;;20.20;12.13;;;12.10;99.90;;;;;;5130545;27;20041;-49
2021/11/19 05:22:01;;;;;;;22.10;11.80;;;12.20;99.90;;;;;;5127719;27;20095;-49
2021/11/19 05:24:29;;;;;;;20.52;13.07;;;12.10;99.90;;;;;;5129998;27;20478;-48
2021/11/19 05:26:56;;;;;;;15.77;11.43;;;12.20;99.90;;;;;;5128327;27;20038;-48
2021/11/19 05:29:22;;;;;;;21.33;11.80;;;12.20;99.90;;;;;;5129414;27;20047;-50
2021/11/19 05:31:50;;;;;;;23.00;12.18;;;12.20;99.90;;;;;;5112495;27;20718;-50
2021/11/19 05:34:18;;;;;;;19.02;11.95;;;12.20;99.90;;;;;;5132076;27;20050;-52
2021/11/19 05:36:45;;;;;;;18.88;11.07;;;12.20;99.90;;;;;;5148210;27;20130;-49
2021/11/19 05:39:12;;;;;;;24.00;12.75;;;12.20;99.90;;;;;;5129956;27;20050;-49
2021/11/19 05:41:42;;;;;;;18.98;11.63;;;12.20;99.90;;;;;;5132576;27;20039;-50
2021/11/19 05:44:09;;;;;;;20.15;11.60;;;12.20;99.90;;;;;;5121196;27;20098;-49
2021/11/19 05:46:56;;;;;;;22.30;11.20;;;12.20;99.90;;;;;;5085118;28;20153;-50
2021/11/19 05:49:24;;;;;;;21.15;12.07;;;12.20;99.90;;;;;;5059037;28;20056;-55
2021/11/19 05:51:54;;;;;;;20.27;11.32;;;12.20;99.90;;;;;;5067636;28;20193;-57
2021/11/19 05:54:22;;;;;;;17.45;11.57;;;12.10;99.90;;;;;;5087590;28;20076;-56
2021/11/19 05:56:50;;;;;;;20.27;11.00;;;12.20;99.90;;;;;;5070900;28;20078;-56
2021/11/19 05:59:18;;;;;;;22.05;11.90;;;12.10;99.90;;;;;;5071531;28;20119;-57
2021/11/19 06:02:08;;;;;;;21.48;10.63;;;12.20;99.90;;;;;;5065176;28;20130;-56
2021/11/19 06:04:48;;;;;;;23.95;12.48;;;12.10;99.90;;;;;;5067604;28;20080;-57
2021/11/19 06:07:40;;;;;;;21.00;12.53;;;12.10;99.90;;;;;;5082483;28;20044;-56
2021/11/19 06:10:12;;;;;;;21.75;13.00;;;12.20;99.90;;;;;;5087405;28;20040;-48
2021/11/19 06:12:43;;;;;;;19.63;11.98;;;12.20;99.90;;;;;;5087791;28;20526;-51
2021/11/19 06:15:15;;;;;;;20.50;11.18;;;12.10;99.90;;;;;;5069979;28;20052;-56
2021/11/19 06:17:48;;;;;;;24.58;12.30;;;12.10;99.90;;;;;;5087578;28;20092;-57
2021/11/19 06:20:22;;;;;;;21.17;11.65;;;12.10;99.90;;;;;;5070837;28;20048;-56
2021/11/19 06:22:58;;;;;;;21.73;12.57;;;12.10;99.90;;;;;;5079697;27;20044;-57
2021/11/19 06:25:29;;;;;;;31.25;12.35;;;12.10;99.90;;;;;;5115179;27;20050;-56
2021/11/19 06:27:59;;;;;;;25.30;13.80;;;12.20;99.90;;;;;;5105150;27;20046;-57
2021/11/19 06:30:29;;;;;;;22.45;12.82;;;12.10;99.90;;;;;;5142169;27;20444;-56
2021/11/19 06:32:56;;;;;;;20.70;13.25;;;12.10;99.90;;;;;;5134576;27;20042;-57
2021/11/19 06:35:23;;;;;;;20.33;13.25;;;12.10;99.90;;;;;;5145404;27;20476;-56
2021/11/19 06:37:49;;;;;;;22.15;13.52;;;12.10;99.90;;;;;;5151789;27;20038;-59
2021/11/19 06:40:41;;;;;;;;;;;12.10;99.90;;;;;;5135683;27;20413;-57
2021/11/19 06:43:26;;;;;;;28.02;13.70;;;12.10;99.90;;;;;;5149494;27;20296;-58
2021/11/19 06:46:11;;;;;;;22.83;14.98;;;12.10;99.90;;;;;;5150498;27;20150;-57
2021/11/19 06:48:54;;;;;;;19.75;12.77;;;12.10;99.90;;;;;;5118684;27;20039;-56
2021/11/19 06:51:40;;;;;;;23.25;13.20;;;12.10;99.90;;;;;;5151360;27;20057;-52
2021/11/19 06:54:37;;;;;;;23.58;13.35;;;12.10;99.90;;;;;;5106050;28;20046;-55
2021/11/19 06:57:04;;;;;;;23.67;13.07;;;12.10;99.90;;;;;;5106934;28;20108;-56
2021/11/19 06:59:34;;;;;;;20.08;12.35;;;12.10;99.90;;;;;;5084784;28;20073;-56
2021/11/19 07:02:02;;;;;;;21.58;13.60;;;12.10;99.90;;;;;;5087668;28;20059;-56
2021/11/19 07:04:29;;;;;;;22.38;13.90;;;12.10;99.90;;;;;;5089410;28;20050;-48
2021/11/19 07:06:55;;;;;;;21.70;13.02;;;12.10;99.90;;;;;;5073499;28;20063;-53
2021/11/19 07:09:21;;;;;;;25.83;13.65;;;12.00;99.90;;;;;;5071336;28;20044;-51
2021/11/19 07:11:49;;;;;;;24.40;14.60;;;12.00;99.90;;;;;;5097490;28;20040;-53
2021/11/19 07:14:16;;;;;;;22.67;14.65;;;12.10;99.90;;;;;;5107783;28;20058;-52
2021/11/19 07:16:43;;;;;;;22.17;13.20;;;12.10;99.90;;;;;;5089652;28;20112;-53
2021/11/19 07:19:11;;;;;;;24.77;13.73;;;12.10;99.90;;;;;;5107421;28;20048;-51
2021/11/19 07:21:38;;;;;;;24.25;13.93;;;12.10;99.90;;;;;;5072433;28;20062;-51
2021/11/19 07:24:06;;;;;;;18.63;12.93;;;12.00;99.90;;;;;;5090677;28;20054;-50
2021/11/19 07:26:32;;;;;;;19.75;13.02;;;12.10;99.90;;;;;;5073711;28;20115;-54
2021/11/19 07:28:58;;;;;;;24.00;12.68;;;12.00;99.90;;;;;;5086210;28;20173;-56
2021/11/19 07:31:43;;;;;;;25.67;14.10;;;12.10;99.90;;;;;;5118556;27;20043;-56
2021/11/19 07:34:25;;;;;;;24.80;13.80;;;12.00;99.90;;;;;;5130507;27;20510;-56
2021/11/19 07:37:24;;;;;;;19.92;12.85;;;12.00;99.90;;;;;;5063332;28;20299;-56
2021/11/19 07:40:12;;;;;;;21.45;13.60;;;12.00;99.90;;;;;;5063985;28;20052;-56
2021/11/19 07:42:58;;;;;;;24.52;13.55;;;12.00;99.90;;;;;;5064481;28;20044;-56
2021/11/19 07:45:38;;;;;;;22.35;12.88;;;12.00;99.90;;;;;;5065987;28;20534;-56
2021/11/19 07:48:28;;;;;;;17.73;12.27;;;12.10;99.90;;;;;;5062273;28;20165;-56
2021/11/19 07:50:56;;;;;;;21.98;12.30;;;12.00;99.90;;;;;;5040476;28;20048;-55
2021/11/19 07:53:23;;;;;;;23.65;12.35;;;12.00;99.90;;;;;;5045059;28;20048;-56
2021/11/19 07:55:52;;;;;;;24.85;12.77;;;12.10;99.90;;;;;;5045685;28;20173;-56
2021/11/19 07:58:20;;;;;;;21.05;12.18;;;12.10;99.90;;;;;;5045867;28;20190;-56
2021/11/19 08:00:48;;;;;;;26.00;12.38;;;12.10;99.90;;;;;;5061040;28;20079;-56
2021/11/19 08:03:15;;;;;;;25.20;13.07;;;12.10;99.90;;;;;;5063235;28;20052;-56
2021/11/19 08:05:55;;;;;;;21.25;12.65;;;12.10;99.90;;;;;;5065377;28;20119;-55
2021/11/19 08:08:28;;;;;;;24.42;13.35;;;12.10;99.90;;;;;;5048882;28;20064;-56
2021/11/19 08:11:17;;;;;;;20.60;11.80;;;12.10;99.90;;;;;;5036525;28;20495;-55
2021/11/19 08:13:45;;;;;;;23.92;13.30;;;12.00;99.90;;;;;;5109052;27;20118;-56
2021/11/19 08:16:12;;;;;;;21.88;12.38;;;12.10;99.90;;;;;;5129358;27;20039;-55
2021/11/19 08:19:01;;;;;;;22.30;12.55;;;12.10;99.90;;;;;;5150948;27;20049;-55
2021/11/19 08:21:28;;;;;;;26.40;13.05;;;12.10;99.90;;;;;;5132243;27;20126;-56
2021/11/19 08:23:58;;;;;;;21.45;12.18;;;12.10;99.90;;;;;;5148721;27;20042;-54
2021/11/19 08:26:30;;;;;;;24.38;12.77;;;12.00;99.90;;;;;;5150073;27;20039;-54
2021/11/19 08:28:57;;;;;;;25.30;13.25;;;12.10;99.90;;;;;;5124751;27;20043;-54
2021/11/19 08:31:25;;;;;;;21.13;11.90;;;12.10;99.90;;;;;;5119549;27;20043;-51
2021/11/19 08:33:52;;;;;;;22.92;12.40;;;12.10;99.90;;;;;;5133792;27;20209;-50
2021/11/19 08:36:21;;;;;;;25.05;12.45;;;12.10;99.90;;;;;;5129326;27;20043;-48
2021/11/19 08:38:47;;;;;;;18.48;11.23;;;12.10;99.90;;;;;;5128915;27;20050;-55
2021/11/19 08:41:15;;;;;;;23.73;11.32;;;12.10;99.90;;;;;;5114244;27;20049;-55
2021/11/19 08:43:45;;;;;;;22.75;11.52;;;12.10;99.90;;;;;;5113110;27;20043;-55
2021/11/19 08:46:17;;;;;;;26.48;11.98;;;12.20;99.90;;;;;;5129292;27;20077;-54
2021/11/19 08:48:46;;;;;;;20.75;10.50;;;12.20;99.90;;;;;;5092900;27;20039;-55
2021/11/19 08:51:18;;;;;;;21.23;11.35;;;12.20;99.90;;;;;;5129043;27;20498;-55
2021/11/19 08:53:50;;;;;;;19.52;11.45;;;12.20;99.90;;;;;;5131266;27;20115;-55
2021/11/19 08:56:16;;;;;;;18.98;10.98;;;12.20;99.90;;;;;;5148132;27;20039;-55
2021/11/19 08:58:44;;;;;;;19.58;11.30;;;12.20;99.90;;;;;;5130275;27;20046;-55
2021/11/19 09:01:12;;;;;;;23.83;12.45;;;12.30;99.90;;;;;;5130472;27;20050;-56
2021/11/19 09:03:40;;;;;;;21.45;11.13;;;12.30;99.90;;;;;;5136810;27;20343;-55
2021/11/19 09:06:09;;;;;;;21.65;10.20;;;12.30;99.90;;;;;;5130215;27;20043;-55
2021/11/19 09:08:37;;;;;;;24.27;9.88;;;12.40;99.90;;;;;;5149186;27;20093;-56
2021/11/19 09:11:05;;;;;;;19.05;9.32;;;12.40;99.90;;;;;;5153913;27;20114;-55
2021/11/19 09:13:33;;;;;;;20.08;10.10;;;12.40;99.90;;;;;;5153245;27;20269;-56
2021/11/19 09:16:01;;;;;;;21.40;10.15;;;12.40;99.90;;;;;;5153951;27;20039;-55
2021/11/19 09:18:57;;;;;;;19.45;9.20;;;12.50;99.90;;;;;;5153363;27;20043;-56
2021/11/19 09:21:49;;;;;;;16.83;9.95;;;12.50;99.90;;;;;;5118290;27;20054;-56
2021/11/19 09:24:25;;;;;;;17.77;9.90;;;12.60;99.90;;;;;;5068708;28;20043;-51
2021/11/19 09:26:57;;;;;;;19.50;8.50;;;12.60;99.90;;;;;;5060453;28;20175;-49
2021/11/19 09:29:39;;;;;;;19.08;9.07;;;12.60;99.90;;;;;;5049305;28;20142;-50
2021/11/19 09:32:06;;;;;;;14.95;8.65;;;12.60;99.90;;;;;;5051961;28;20047;-50
2021/11/19 09:34:36;;;;;;;18.85;8.55;;;12.60;99.90;;;;;;5068911;28;20075;-50
2021/11/19 09:37:04;;;;;;;18.83;8.60;;;12.60;99.90;;;;;;5068557;28;20076;-48
2021/11/19 09:39:31;;;;;;;17.70;7.53;;;12.70;99.90;;;;;;5068180;28;20068;-52
2021/11/19 09:42:08;;;;;;;15.43;7.80;;;12.70;99.90;;;;;;5027429;28;20484;-51
2021/11/19 09:44:51;;;;;;;16.55;7.45;;;12.70;99.90;;;;;;5031894;28;20109;-48
2021/11/19 09:47:38;;;;;;;23.55;8.57;;;12.80;99.90;;;;;;5067109;28;20040;-51
2021/11/19 09:50:37;;;;;;;17.40;7.97;;;12.80;99.90;;;;;;5068311;28;20139;-47
2021/11/19 09:53:25;;;;;;;13.90;6.88;;;12.80;99.90;;;;;;5044301;28;20132;-51
2021/11/19 09:56:25;;;;;;;15.23;6.95;;;12.80;99.90;;;;;;5047810;28;20045;-51
2021/11/19 09:59:09;;;;;;;17.25;6.43;;;12.80;99.90;;;;;;5030553;28;20064;-47
2021/11/19 10:01:53;;;;;;;19.33;7.95;;;12.80;99.90;;;;;;5085787;27;20047;-49
2021/11/19 10:04:34;;;;;;;17.20;6.65;;;12.90;99.90;;;;;;5124212;27;20152;-51
2021/11/19 10:07:19;;;;;;;17.67;6.33;;;12.90;99.90;;;;;;5113206;27;20074;-51
2021/11/19 10:09:55;;;;;;;15.40;6.28;;;12.90;99.90;;;;;;5150989;27;20049;-48
2021/11/19 10:12:26;;;;;;;14.50;6.63;;;12.90;99.90;;;;;;5151379;27;20431;-52
2021/11/19 10:15:06;;;;;;;16.35;6.85;;;12.90;99.90;;;;;;5115845;27;20062;-51
2021/11/19 10:17:48;;;;;;;17.75;6.00;;;12.90;99.90;;;;;;5149944;27;20144;-50
2021/11/19 10:20:42;;;;;;;14.57;6.28;;;12.90;99.90;;;;;;5132588;27;20061;-48
2021/11/19 10:23:11;;;;;;;15.38;6.65;;;13.00;99.90;;;;;;5130044;27;20039;-50
2021/11/19 10:26:00;;;;;;;15.75;5.43;;;13.00;99.90;;;;;;5130358;27;20047;-52
2021/11/19 10:28:42;;;;;;;14.38;4.70;;;13.00;99.90;;;;;;5152233;27;20518;-47
2021/11/19 10:31:16;;;;;;;12.13;5.05;;;13.10;99.90;;;;;;5133707;27;20045;-48
2021/11/19 10:34:05;;;;;;;16.92;5.22;;;13.00;99.90;;;;;;5149886;27;20054;-48
2021/11/19 10:37:09;;;;;;;14.45;5.40;;;13.10;99.90;;;;;;5132141;27;20195;-56
2021/11/19 10:40:12;;;;;;;17.70;5.35;;;13.10;99.90;;;;;;5132616;27;20063;-56
2021/11/19 10:43:00;;;;;;;14.65;5.03;;;13.10;99.90;;;;;;5151826;27;20382;-55
2021/11/19 10:45:45;;;;;;;14.13;5.57;;;13.20;99.90;;;;;;5142505;27;20409;-56
2021/11/19 10:48:34;;;;;;;16.27;6.28;;;13.20;99.90;;;;;;5149004;27;20057;-54
2021/11/19 10:51:15;;;;;;;12.35;4.05;;;13.30;99.90;;;;;;5047130;28;20056;-56
2021/11/19 10:53:50;;;;;;;10.03;3.93;;;13.30;99.90;;;;;;5042704;28;20049;-50
2021/11/19 10:56:37;;;;;;;14.02;4.97;;;13.30;99.90;;;;;;5021488;28;20340;-47
2021/11/19 10:59:38;;;;;;;13.55;4.90;;;13.30;99.90;;;;;;5025985;28;20042;-50
2021/11/19 11:02:06;;;;;;;11.63;4.05;;;13.20;99.90;;;;;;5008365;28;20049;-52
2021/11/19 11:04:59;;;;;;;17.92;4.75;;;13.20;99.90;;;;;;5029433;28;20038;-51
2021/11/19 11:07:33;;;;;;;11.80;4.18;;;13.20;99.90;;;;;;5021678;28;20098;-47
2021/11/19 11:09:59;;;;;;;14.55;3.65;;;13.20;99.90;;;;;;5010514;28;20052;-49
2021/11/19 11:12:39;;;;;;;12.82;3.78;;;13.10;99.90;;;;;;5027197;28;20041;-51
2021/11/19 11:15:31;;;;;;;12.23;4.70;;;13.20;99.90;;;;;;5029548;28;20135;-51
2021/11/19 11:18:00;;;;;;;10.10;4.05;;;13.10;99.90;;;;;;5035880;28;20049;-48
2021/11/19 11:20:29;;;;;;;11.93;3.72;;;13.10;99.90;;;;;;5026901;28;20044;-47
2021/11/19 11:22:58;;;;;;;11.60;3.75;;;13.10;99.90;;;;;;5026855;28;20049;-48
2021/11/19 11:25:35;;;;;;;10.90;3.85;;;13.20;99.90;;;;;;5030632;28;20515;-51
2021/11/19 11:28:15;;;;;;;12.75;3.63;;;13.20;99.90;;;;;;5057959;27;20046;-53
2021/11/19 11:30:54;;;;;;;13.43;4.05;;;13.20;99.90;;;;;;5129828;27;20043;-52
2021/11/19 11:33:27;;;;;;;12.52;3.88;;;13.30;99.90;;;;;;5114554;27;20485;-56
2021/11/19 11:36:10;;;;;;;11.05;3.30;;;13.30;99.90;;;;;;5130113;27;20085;-55
2021/11/19 11:38:48;;;;;;;9.25;3.40;;;13.30;99.90;;;;;;5148059;27;20126;-48
2021/11/19 11:41:25;;;;;;;11.93;4.65;;;13.30;99.90;;;;;;5110988;27;20074;-48
2021/11/19 11:44:06;;;;;;;12.98;3.65;;;13.30;99.90;;;;;;5130003;27;20248;-56
2021/11/19 11:46:47;;;;;;;11.45;3.22;;;13.30;99.90;;;;;;5149263;27;20082;-56
2021/11/19 11:49:22;;;;;;;11.50;3.60;;;13.30;99.90;;;;;;5131645;27;20047;-56
2021/11/19 11:52:23;;;;;;;13.13;3.95;;;13.30;99.90;;;;;;5131783;27;20130;-57
2021/11/19 11:54:58;;;;;;;13.10;3.47;;;13.30;99.90;;;;;;5141962;27;20090;-61
2021/11/19 11:57:52;;;;;;;12.02;3.60;;;13.20;99.90;;;;;;5114823;27;20054;-56
2021/11/19 12:00:36;;;;;;;12.88;3.33;;;13.20;99.90;;;;;;5149316;27;20038;-56
2021/11/19 12:03:13;;;;;;;9.98;3.65;;;13.30;99.90;;;;;;5150746;27;20050;-56
2021/11/19 12:06:03;;;;;;;11.38;4.07;;;13.20;99.90;;;;;;5120935;27;20046;-56
2021/11/19 12:08:45;;;;;;;15.10;4.18;;;13.20;99.90;;;;;;5150623;27;20106;-56
2021/11/19 12:11:49;;;;;;;12.30;3.40;;;13.30;99.90;;;;;;5150249;27;20047;-56
2021/11/19 12:14:24;;;;;;;14.07;4.85;;;13.30;99.90;;;;;;5150653;27;20078;-56
2021/11/19 12:16:59;;;;;;;12.98;4.07;;;13.30;99.90;;;;;;5150668;27;20110;-56
2021/11/19 12:19:34;;;;;;;9.90;3.83;;;13.30;99.90;;;;;;5141563;27;20049;-56
2021/11/19 12:22:26;;;;;;;14.55;4.50;;;13.30;99.90;;;;;;5127622;27;20092;-56
2021/11/19 12:24:55;;;;;;;;;;;13.30;99.90;;;;;;5145663;27;20147;-54
2021/11/19 12:27:39;;;;;;;12.95;4.40;;;13.20;99.90;;;;;;5150024;27;19919;-56
2021/11/19 12:30:29;;;;;;;12.70;3.50;;;13.20;99.90;;;;;;5146002;27;20050;-53
2021/11/19 12:33:04;;;;;;;17.80;3.95;;;13.30;99.90;;;;;;5150323;27;20289;-53
2021/11/19 12:36:09;;;;;;;11.65;3.13;;;13.30;99.90;;;;;;5130165;27;20095;-54
2021/11/19 12:38:55;;;;;;;16.90;4.35;;;13.40;99.90;;;;;;5025799;28;20060;-55
2021/11/19 12:41:38;;;;;;;10.55;3.80;;;13.40;99.90;;;;;;5029324;28;20045;-48
2021/11/19 12:44:30;;;;;;;15.23;3.25;;;13.40;99.90;;;;;;5032969;28;20485;-47
2021/11/19 12:47:05;;;;;;;10.75;2.88;;;13.50;99.90;;;;;;5045090;28;20223;-50
2021/11/19 12:49:45;;;;;;;9.00;3.13;;;13.70;99.90;;;;;;5028836;28;20072;-51
2021/11/19 12:52:18;;;;;;;10.27;3.42;;;13.90;99.90;;;;;;5045748;28;20642;-53
2021/11/19 12:54:56;;;;;;;14.18;2.65;;;14.50;99.90;;;;;;5044403;28;20648;-50
2021/11/19 12:57:59;;;;;;;11.93;3.83;;;14.80;99.90;;;;;;5028841;28;20052;-51
2021/11/19 13:00:40;;;;;;;9.05;2.63;;;14.90;99.90;;;;;;5036703;28;20084;-52
2021/11/19 13:03:21;;;;;;;7.63;3.03;;;15.20;99.90;;;;;;5046028;28;20464;-52
2021/11/19 13:06:03;;;;;;;10.63;2.60;;;15.00;99.90;;;;;;5044248;28;20045;-52
2021/11/19 13:08:43;;;;;;;10.13;2.97;;;14.90;99.90;;;;;;5026273;28;20060;-47